sensor_id;sensor_type;location;lat;lon;timestamp;P1;durP1;ratioP1;P2;durP2;ratioP2
53044;SDS011;38930;52.766;6.884;2023-05-24T00:01:41;12.45;;;3.20;;
53044;SDS011;38930;52.766;6.884;2023-05-24T00:04:07;14.77;;;3.28;;
53044;SDS011;38930;52.766;6.884;2023-05-24T00:06:34;9.65;;;2.90;;
53044;SDS011;38930;52.766;6.884;2023-05-24T00:09:01;8.90;;;2.75;;
53044;SDS011;38930;52.766;6.884;2023-05-24T00:11:28;13.52;;;3.45;;
53044;SDS011;38930;52.766;6.884;2023-05-24T00:13:53;8.02;;;2.75;;
53044;SDS011;38930;52.766;6.884;2023-05-24T00:16:19;13.80;;;4.15;;
53044;SDS011;38930;52.766;6.884;2023-05-24T00:18:44;14.07;;;3.35;;
53044;SDS011;38930;52.766;6.884;2023-05-24T00:21:11;14.23;;;3.30;;
53044;SDS011;38930;52.766;6.884;2023-05-24T00:26:03;13.82;;;2.83;;
53044;SDS011;38930;52.766;6.884;2023-05-24T00:28:30;13.00;;;3.47;;
53044;SDS011;38930;52.766;6.884;2023-05-24T00:30:56;11.52;;;3.63;;
53044;SDS011;38930;52.766;6.884;2023-05-24T00:33:22;16.40;;;3.88;;
53044;SDS011;38930;52.766;6.884;2023-05-24T00:35:48;8.93;;;3.38;;
53044;SDS011;38930;52.766;6.884;2023-05-24T00:38:18;14.27;;;4.47;;
53044;SDS011;38930;52.766;6.884;2023-05-24T00:40:44;11.23;;;3.42;;
53044;SDS011;38930;52.766;6.884;2023-05-24T00:43:09;13.63;;;3.38;;
53044;SDS011;38930;52.766;6.884;2023-05-24T00:45:35;10.90;;;3.17;;
53044;SDS011;38930;52.766;6.884;2023-05-24T00:48:00;18.63;;;3.15;;
53044;SDS011;38930;52.766;6.884;2023-05-24T00:50:26;8.65;;;2.90;;
53044;SDS011;38930;52.766;6.884;2023-05-24T00:52:52;9.43;;;3.25;;
53044;SDS011;38930;52.766;6.884;2023-05-24T00:55:18;13.23;;;3.55;;
53044;SDS011;38930;52.766;6.884;2023-05-24T00:57:44;10.30;;;3.93;;
53044;SDS011;38930;52.766;6.884;2023-05-24T01:00:09;16.98;;;4.15;;
53044;SDS011;38930;52.766;6.884;2023-05-24T01:02:36;15.70;;;3.47;;
53044;SDS011;38930;52.766;6.884;2023-05-24T01:05:02;8.90;;;3.42;;
53044;SDS011;38930;52.766;6.884;2023-05-24T01:07:38;18.08;;;3.95;;
53044;SDS011;38930;52.766;6.884;2023-05-24T01:10:35;10.60;;;3.20;;
53044;SDS011;38930;52.766;6.884;2023-05-24T01:13:47;17.05;;;3.63;;
53044;SDS011;38930;52.766;6.884;2023-05-24T01:16:23;20.08;;;3.53;;
53044;SDS011;38930;52.766;6.884;2023-05-24T01:18:56;16.83;;;3.75;;
53044;SDS011;38930;52.766;6.884;2023-05-24T01:26:57;18.65;;;3.95;;
53044;SDS011;38930;52.766;6.884;2023-05-24T01:29:35;10.95;;;3.38;;
53044;SDS011;38930;52.766;6.884;2023-05-24T01:32:02;11.30;;;3.28;;
53044;SDS011;38930;52.766;6.884;2023-05-24T01:34:28;13.05;;;3.78;;
53044;SDS011;38930;52.766;6.884;2023-05-24T01:36:54;13.27;;;3.80;;
53044;SDS011;38930;52.766;6.884;2023-05-24T01:39:20;13.35;;;3.25;;
53044;SDS011;38930;52.766;6.884;2023-05-24T01:41:55;10.38;;;3.53;;
53044;SDS011;38930;52.766;6.884;2023-05-24T01:44:45;8.50;;;2.85;;
53044;SDS011;38930;52.766;6.884;2023-05-24T01:52:56;10.43;;;3.20;;
53044;SDS011;38930;52.766;6.884;2023-05-24T01:55:26;15.50;;;4.07;;
53044;SDS011;38930;52.766;6.884;2023-05-24T01:57:52;14.75;;;4.45;;
53044;SDS011;38930;52.766;6.884;2023-05-24T02:00:21;11.55;;;3.42;;
53044;SDS011;38930;52.766;6.884;2023-05-24T02:02:47;12.13;;;3.63;;
53044;SDS011;38930;52.766;6.884;2023-05-24T02:05:13;12.38;;;3.28;;
53044;SDS011;38930;52.766;6.884;2023-05-24T02:07:38;10.20;;;3.22;;
53044;SDS011;38930;52.766;6.884;2023-05-24T02:12:31;11.63;;;3.40;;
53044;SDS011;38930;52.766;6.884;2023-05-24T02:14:57;17.33;;;3.65;;
53044;SDS011;38930;52.766;6.884;2023-05-24T02:17:22;13.48;;;3.92;;
53044;SDS011;38930;52.766;6.884;2023-05-24T02:19:50;18.45;;;4.63;;
53044;SDS011;38930;52.766;6.884;2023-05-24T02:22:16;12.70;;;3.83;;
53044;SDS011;38930;52.766;6.884;2023-05-24T02:24:42;18.30;;;4.93;;
53044;SDS011;38930;52.766;6.884;2023-05-24T02:27:07;11.70;;;3.80;;
53044;SDS011;38930;52.766;6.884;2023-05-24T02:29:33;8.30;;;3.65;;
53044;SDS011;38930;52.766;6.884;2023-05-24T02:31:59;11.40;;;3.10;;
53044;SDS011;38930;52.766;6.884;2023-05-24T02:34:25;18.30;;;3.72;;
53044;SDS011;38930;52.766;6.884;2023-05-24T02:36:50;12.55;;;3.58;;
53044;SDS011;38930;52.766;6.884;2023-05-24T02:39:18;9.52;;;3.13;;
53044;SDS011;38930;52.766;6.884;2023-05-24T02:41:44;19.25;;;4.63;;
53044;SDS011;38930;52.766;6.884;2023-05-24T02:44:10;14.05;;;4.38;;
53044;SDS011;38930;52.766;6.884;2023-05-24T02:46:35;12.65;;;3.47;;
53044;SDS011;38930;52.766;6.884;2023-05-24T02:49:01;10.65;;;3.35;;
53044;SDS011;38930;52.766;6.884;2023-05-24T02:51:27;8.88;;;3.85;;
53044;SDS011;38930;52.766;6.884;2023-05-24T02:53:52;11.93;;;4.72;;
53044;SDS011;38930;52.766;6.884;2023-05-24T02:56:18;19.23;;;3.85;;
53044;SDS011;38930;52.766;6.884;2023-05-24T02:58:43;14.30;;;3.97;;
53044;SDS011;38930;52.766;6.884;2023-05-24T03:01:10;11.67;;;3.73;;
53044;SDS011;38930;52.766;6.884;2023-05-24T03:03:37;16.15;;;3.63;;
53044;SDS011;38930;52.766;6.884;2023-05-24T03:06:03;22.58;;;4.43;;
53044;SDS011;38930;52.766;6.884;2023-05-24T03:08:31;17.58;;;4.15;;
53044;SDS011;38930;52.766;6.884;2023-05-24T03:10:57;10.73;;;3.73;;
53044;SDS011;38930;52.766;6.884;2023-05-24T03:13:22;24.08;;;4.00;;
53044;SDS011;38930;52.766;6.884;2023-05-24T03:15:48;16.73;;;4.30;;
53044;SDS011;38930;52.766;6.884;2023-05-24T03:18:13;14.25;;;3.95;;
53044;SDS011;38930;52.766;6.884;2023-05-24T03:20:39;12.98;;;4.13;;
53044;SDS011;38930;52.766;6.884;2023-05-24T03:23:05;11.25;;;3.75;;
53044;SDS011;38930;52.766;6.884;2023-05-24T03:25:31;13.60;;;4.43;;
53044;SDS011;38930;52.766;6.884;2023-05-24T03:27:56;16.52;;;4.43;;
53044;SDS011;38930;52.766;6.884;2023-05-24T03:30:22;13.77;;;4.38;;
53044;SDS011;38930;52.766;6.884;2023-05-24T03:32:48;16.27;;;4.18;;
53044;SDS011;38930;52.766;6.884;2023-05-24T03:35:14;13.10;;;4.13;;
53044;SDS011;38930;52.766;6.884;2023-05-24T03:37:39;10.35;;;3.47;;
53044;SDS011;38930;52.766;6.884;2023-05-24T03:40:05;15.88;;;3.80;;
53044;SDS011;38930;52.766;6.884;2023-05-24T03:42:31;10.00;;;3.13;;
53044;SDS011;38930;52.766;6.884;2023-05-24T03:44:57;13.20;;;3.50;;
53044;SDS011;38930;52.766;6.884;2023-05-24T03:47:23;21.33;;;4.53;;
53044;SDS011;38930;52.766;6.884;2023-05-24T03:49:48;16.10;;;3.95;;
53044;SDS011;38930;52.766;6.884;2023-05-24T03:52:14;13.48;;;4.32;;
53044;SDS011;38930;52.766;6.884;2023-05-24T03:54:39;17.67;;;3.75;;
53044;SDS011;38930;52.766;6.884;2023-05-24T03:57:05;13.85;;;4.45;;
53044;SDS011;38930;52.766;6.884;2023-05-24T03:59:31;16.50;;;3.72;;
53044;SDS011;38930;52.766;6.884;2023-05-24T04:01:56;13.82;;;3.33;;
53044;SDS011;38930;52.766;6.884;2023-05-24T04:04:22;17.33;;;3.83;;
53044;SDS011;38930;52.766;6.884;2023-05-24T04:06:48;16.13;;;3.75;;
53044;SDS011;38930;52.766;6.884;2023-05-24T04:09:13;17.52;;;3.83;;
53044;SDS011;38930;52.766;6.884;2023-05-24T04:11:39;23.02;;;4.07;;
53044;SDS011;38930;52.766;6.884;2023-05-24T04:14:05;20.10;;;4.38;;
53044;SDS011;38930;52.766;6.884;2023-05-24T04:16:31;16.73;;;4.82;;
53044;SDS011;38930;52.766;6.884;2023-05-24T04:18:58;12.73;;;4.47;;
53044;SDS011;38930;52.766;6.884;2023-05-24T04:21:28;13.93;;;4.35;;
53044;SDS011;38930;52.766;6.884;2023-05-24T04:23:54;14.90;;;4.50;;
53044;SDS011;38930;52.766;6.884;2023-05-24T04:26:24;9.40;;;3.35;;
53044;SDS011;38930;52.766;6.884;2023-05-24T04:28:49;15.90;;;4.15;;
53044;SDS011;38930;52.766;6.884;2023-05-24T04:31:15;18.85;;;4.30;;
53044;SDS011;38930;52.766;6.884;2023-05-24T04:33:41;13.88;;;3.88;;
53044;SDS011;38930;52.766;6.884;2023-05-24T04:36:06;11.13;;;4.25;;
53044;SDS011;38930;52.766;6.884;2023-05-24T04:38:35;15.60;;;3.33;;
53044;SDS011;38930;52.766;6.884;2023-05-24T04:41:02;13.82;;;3.47;;
53044;SDS011;38930;52.766;6.884;2023-05-24T04:43:29;12.90;;;3.63;;
53044;SDS011;38930;52.766;6.884;2023-05-24T04:45:56;13.13;;;3.50;;
53044;SDS011;38930;52.766;6.884;2023-05-24T04:48:22;12.25;;;3.22;;
53044;SDS011;38930;52.766;6.884;2023-05-24T04:53:21;22.15;;;4.03;;
53044;SDS011;38930;52.766;6.884;2023-05-24T04:55:47;13.13;;;3.40;;
53044;SDS011;38930;52.766;6.884;2023-05-24T04:58:14;16.65;;;4.30;;
53044;SDS011;38930;52.766;6.884;2023-05-24T05:00:40;14.65;;;3.38;;
53044;SDS011;38930;52.766;6.884;2023-05-24T05:03:06;13.27;;;3.53;;
53044;SDS011;38930;52.766;6.884;2023-05-24T05:05:32;10.57;;;3.15;;
53044;SDS011;38930;52.766;6.884;2023-05-24T05:07:58;7.88;;;3.25;;
53044;SDS011;38930;52.766;6.884;2023-05-24T05:10:24;11.03;;;2.83;;
53044;SDS011;38930;52.766;6.884;2023-05-24T05:12:50;10.23;;;3.03;;
53044;SDS011;38930;52.766;6.884;2023-05-24T05:15:16;8.02;;;3.13;;
53044;SDS011;38930;52.766;6.884;2023-05-24T05:17:41;12.35;;;3.22;;
53044;SDS011;38930;52.766;6.884;2023-05-24T05:20:07;15.15;;;3.13;;
53044;SDS011;38930;52.766;6.884;2023-05-24T05:22:33;6.28;;;2.92;;
53044;SDS011;38930;52.766;6.884;2023-05-24T05:24:59;11.35;;;3.55;;
53044;SDS011;38930;52.766;6.884;2023-05-24T05:27:25;8.70;;;3.00;;
53044;SDS011;38930;52.766;6.884;2023-05-24T05:29:51;13.63;;;3.77;;
53044;SDS011;38930;52.766;6.884;2023-05-24T05:32:16;19.50;;;3.83;;
53044;SDS011;38930;52.766;6.884;2023-05-24T05:34:42;12.63;;;3.10;;
53044;SDS011;38930;52.766;6.884;2023-05-24T05:37:08;22.50;;;3.47;;
53044;SDS011;38930;52.766;6.884;2023-05-24T05:39:34;8.63;;;3.67;;
53044;SDS011;38930;52.766;6.884;2023-05-24T05:42:00;10.40;;;3.28;;
53044;SDS011;38930;52.766;6.884;2023-05-24T05:44:26;12.27;;;3.10;;
53044;SDS011;38930;52.766;6.884;2023-05-24T05:46:52;10.68;;;2.90;;
53044;SDS011;38930;52.766;6.884;2023-05-24T05:49:17;11.32;;;3.10;;
53044;SDS011;38930;52.766;6.884;2023-05-24T05:51:43;8.93;;;2.92;;
53044;SDS011;38930;52.766;6.884;2023-05-24T05:54:10;14.60;;;3.40;;
53044;SDS011;38930;52.766;6.884;2023-05-24T05:56:42;11.38;;;2.90;;
53044;SDS011;38930;52.766;6.884;2023-05-24T05:59:14;10.43;;;2.63;;
53044;SDS011;38930;52.766;6.884;2023-05-24T06:01:40;13.65;;;2.80;;
53044;SDS011;38930;52.766;6.884;2023-05-24T06:06:32;10.45;;;2.90;;
53044;SDS011;38930;52.766;6.884;2023-05-24T06:08:58;12.98;;;2.83;;
53044;SDS011;38930;52.766;6.884;2023-05-24T06:11:24;18.55;;;5.32;;
53044;SDS011;38930;52.766;6.884;2023-05-24T06:13:51;14.32;;;2.40;;
53044;SDS011;38930;52.766;6.884;2023-05-24T06:16:17;10.73;;;2.73;;
53044;SDS011;38930;52.766;6.884;2023-05-24T06:18:42;9.80;;;2.58;;
53044;SDS011;38930;52.766;6.884;2023-05-24T06:21:08;9.82;;;2.75;;
53044;SDS011;38930;52.766;6.884;2023-05-24T06:23:35;15.60;;;2.30;;
53044;SDS011;38930;52.766;6.884;2023-05-24T06:26:02;12.52;;;2.67;;
53044;SDS011;38930;52.766;6.884;2023-05-24T06:28:27;10.57;;;2.00;;
53044;SDS011;38930;52.766;6.884;2023-05-24T06:30:53;7.55;;;2.28;;
53044;SDS011;38930;52.766;6.884;2023-05-24T06:33:19;12.82;;;2.72;;
53044;SDS011;38930;52.766;6.884;2023-05-24T06:35:44;10.52;;;2.95;;
53044;SDS011;38930;52.766;6.884;2023-05-24T06:38:10;10.20;;;2.47;;
53044;SDS011;38930;52.766;6.884;2023-05-24T06:40:36;9.25;;;2.63;;
53044;SDS011;38930;52.766;6.884;2023-05-24T06:43:01;14.38;;;3.25;;
53044;SDS011;38930;52.766;6.884;2023-05-24T06:45:28;9.88;;;2.40;;
53044;SDS011;38930;52.766;6.884;2023-05-24T06:47:53;6.15;;;2.15;;
53044;SDS011;38930;52.766;6.884;2023-05-24T06:50:19;6.80;;;2.00;;
53044;SDS011;38930;52.766;6.884;2023-05-24T06:52:45;10.15;;;2.88;;
53044;SDS011;38930;52.766;6.884;2023-05-24T06:55:10;11.40;;;2.83;;
53044;SDS011;38930;52.766;6.884;2023-05-24T06:57:36;8.50;;;2.60;;
53044;SDS011;38930;52.766;6.884;2023-05-24T07:00:02;12.60;;;2.15;;
53044;SDS011;38930;52.766;6.884;2023-05-24T07:02:32;7.40;;;2.15;;
53044;SDS011;38930;52.766;6.884;2023-05-24T07:04:58;10.20;;;2.77;;
53044;SDS011;38930;52.766;6.884;2023-05-24T07:07:23;15.07;;;2.83;;
53044;SDS011;38930;52.766;6.884;2023-05-24T07:09:49;11.32;;;2.47;;
53044;SDS011;38930;52.766;6.884;2023-05-24T07:12:15;10.05;;;2.70;;
53044;SDS011;38930;52.766;6.884;2023-05-24T07:14:40;12.57;;;3.23;;
53044;SDS011;38930;52.766;6.884;2023-05-24T07:17:06;12.23;;;2.47;;
53044;SDS011;38930;52.766;6.884;2023-05-24T07:19:32;4.68;;;2.38;;
53044;SDS011;38930;52.766;6.884;2023-05-24T07:21:59;9.98;;;2.22;;
53044;SDS011;38930;52.766;6.884;2023-05-24T07:24:25;8.97;;;2.37;;
53044;SDS011;38930;52.766;6.884;2023-05-24T07:26:51;10.00;;;2.70;;
53044;SDS011;38930;52.766;6.884;2023-05-24T07:29:21;9.00;;;2.28;;
53044;SDS011;38930;52.766;6.884;2023-05-24T07:31:47;7.90;;;2.63;;
53044;SDS011;38930;52.766;6.884;2023-05-24T07:34:13;10.43;;;2.47;;
53044;SDS011;38930;52.766;6.884;2023-05-24T07:36:39;7.57;;;2.60;;
53044;SDS011;38930;52.766;6.884;2023-05-24T07:39:06;11.60;;;3.13;;
53044;SDS011;38930;52.766;6.884;2023-05-24T07:41:34;12.25;;;2.83;;
53044;SDS011;38930;52.766;6.884;2023-05-24T07:44:00;8.32;;;2.67;;
53044;SDS011;38930;52.766;6.884;2023-05-24T07:46:26;8.63;;;2.63;;
53044;SDS011;38930;52.766;6.884;2023-05-24T07:48:52;10.17;;;2.10;;
53044;SDS011;38930;52.766;6.884;2023-05-24T07:51:17;8.15;;;2.58;;
53044;SDS011;38930;52.766;6.884;2023-05-24T07:53:43;14.38;;;2.50;;
53044;SDS011;38930;52.766;6.884;2023-05-24T07:56:08;7.72;;;2.17;;
53044;SDS011;38930;52.766;6.884;2023-05-24T07:58:34;11.18;;;2.30;;
53044;SDS011;38930;52.766;6.884;2023-05-24T08:01:00;9.50;;;2.87;;
53044;SDS011;38930;52.766;6.884;2023-05-24T08:03:26;10.88;;;1.88;;
53044;SDS011;38930;52.766;6.884;2023-05-24T08:05:52;8.38;;;2.17;;
53044;SDS011;38930;52.766;6.884;2023-05-24T08:08:17;8.00;;;2.20;;
53044;SDS011;38930;52.766;6.884;2023-05-24T08:10:44;8.75;;;2.00;;
53044;SDS011;38930;52.766;6.884;2023-05-24T08:13:10;5.43;;;2.20;;
53044;SDS011;38930;52.766;6.884;2023-05-24T08:15:35;7.63;;;2.38;;
53044;SDS011;38930;52.766;6.884;2023-05-24T08:18:01;9.85;;;2.10;;
53044;SDS011;38930;52.766;6.884;2023-05-24T08:20:27;9.68;;;2.05;;
53044;SDS011;38930;52.766;6.884;2023-05-24T08:22:53;7.25;;;2.00;;
53044;SDS011;38930;52.766;6.884;2023-05-24T08:25:18;4.30;;;1.92;;
53044;SDS011;38930;52.766;6.884;2023-05-24T08:27:44;5.70;;;2.30;;
53044;SDS011;38930;52.766;6.884;2023-05-24T08:30:10;5.65;;;1.75;;
53044;SDS011;38930;52.766;6.884;2023-05-24T08:32:38;8.45;;;2.25;;
53044;SDS011;38930;52.766;6.884;2023-05-24T08:35:03;6.90;;;2.03;;
53044;SDS011;38930;52.766;6.884;2023-05-24T08:37:29;8.87;;;2.63;;
53044;SDS011;38930;52.766;6.884;2023-05-24T08:39:57;8.25;;;2.30;;
53044;SDS011;38930;52.766;6.884;2023-05-24T08:42:23;8.63;;;1.93;;
53044;SDS011;38930;52.766;6.884;2023-05-24T08:44:56;8.52;;;2.05;;
53044;SDS011;38930;52.766;6.884;2023-05-24T08:47:25;7.45;;;2.15;;
53044;SDS011;38930;52.766;6.884;2023-05-24T08:49:53;7.35;;;2.00;;
53044;SDS011;38930;52.766;6.884;2023-05-24T08:52:19;7.13;;;2.03;;
53044;SDS011;38930;52.766;6.884;2023-05-24T08:57:12;6.95;;;1.88;;
53044;SDS011;38930;52.766;6.884;2023-05-24T08:59:40;8.55;;;2.28;;
53044;SDS011;38930;52.766;6.884;2023-05-24T09:02:08;4.50;;;2.37;;
53044;SDS011;38930;52.766;6.884;2023-05-24T09:04:38;8.45;;;2.25;;
53044;SDS011;38930;52.766;6.884;2023-05-24T09:07:06;5.13;;;2.25;;
53044;SDS011;38930;52.766;6.884;2023-05-24T09:09:33;10.77;;;2.25;;
53044;SDS011;38930;52.766;6.884;2023-05-24T09:12:01;9.60;;;1.92;;
53044;SDS011;38930;52.766;6.884;2023-05-24T09:14:29;8.60;;;2.00;;
53044;SDS011;38930;52.766;6.884;2023-05-24T09:16:55;7.80;;;2.30;;
53044;SDS011;38930;52.766;6.884;2023-05-24T09:19:21;6.90;;;2.15;;
53044;SDS011;38930;52.766;6.884;2023-05-24T09:21:48;6.13;;;2.03;;
53044;SDS011;38930;52.766;6.884;2023-05-24T09:24:14;6.43;;;1.80;;
53044;SDS011;38930;52.766;6.884;2023-05-24T09:26:39;4.90;;;2.10;;
53044;SDS011;38930;52.766;6.884;2023-05-24T09:29:06;5.22;;;2.10;;
53044;SDS011;38930;52.766;6.884;2023-05-24T09:31:32;3.95;;;1.95;;
53044;SDS011;38930;52.766;6.884;2023-05-24T09:33:59;8.13;;;2.17;;
53044;SDS011;38930;52.766;6.884;2023-05-24T09:36:26;4.97;;;1.87;;
53044;SDS011;38930;52.766;6.884;2023-05-24T09:39:06;8.85;;;2.05;;
53044;SDS011;38930;52.766;6.884;2023-05-24T09:41:36;7.00;;;2.22;;
53044;SDS011;38930;52.766;6.884;2023-05-24T09:44:02;10.13;;;2.60;;
53044;SDS011;38930;52.766;6.884;2023-05-24T09:46:28;11.25;;;2.55;;
53044;SDS011;38930;52.766;6.884;2023-05-24T09:48:59;3.78;;;1.80;;
53044;SDS011;38930;52.766;6.884;2023-05-24T09:51:27;7.78;;;2.22;;
53044;SDS011;38930;52.766;6.884;2023-05-24T09:53:57;7.82;;;2.15;;
53044;SDS011;38930;52.766;6.884;2023-05-24T09:56:25;8.45;;;1.75;;
53044;SDS011;38930;52.766;6.884;2023-05-24T09:58:51;7.43;;;2.33;;
53044;SDS011;38930;52.766;6.884;2023-05-24T10:01:19;5.82;;;2.00;;
53044;SDS011;38930;52.766;6.884;2023-05-24T10:03:55;7.93;;;2.15;;
53044;SDS011;38930;52.766;6.884;2023-05-24T10:06:21;5.95;;;1.90;;
53044;SDS011;38930;52.766;6.884;2023-05-24T10:08:48;7.70;;;1.73;;
53044;SDS011;38930;52.766;6.884;2023-05-24T10:13:40;3.25;;;1.70;;
53044;SDS011;38930;52.766;6.884;2023-05-24T10:16:06;7.73;;;1.90;;
53044;SDS011;38930;52.766;6.884;2023-05-24T10:18:32;5.90;;;1.83;;
53044;SDS011;38930;52.766;6.884;2023-05-24T10:20:58;5.22;;;1.52;;
53044;SDS011;38930;52.766;6.884;2023-05-24T10:23:28;9.30;;;2.28;;
53044;SDS011;38930;52.766;6.884;2023-05-24T10:26:07;7.68;;;1.73;;
53044;SDS011;38930;52.766;6.884;2023-05-24T10:28:37;9.07;;;1.92;;
53044;SDS011;38930;52.766;6.884;2023-05-24T10:31:09;9.23;;;2.20;;
53044;SDS011;38930;52.766;6.884;2023-05-24T10:33:36;6.72;;;1.95;;
53044;SDS011;38930;52.766;6.884;2023-05-24T10:36:03;5.03;;;1.95;;
53044;SDS011;38930;52.766;6.884;2023-05-24T10:38:31;6.40;;;2.67;;
53044;SDS011;38930;52.766;6.884;2023-05-24T10:40:57;6.53;;;1.90;;
53044;SDS011;38930;52.766;6.884;2023-05-24T10:43:23;5.40;;;2.13;;
53044;SDS011;38930;52.766;6.884;2023-05-24T10:45:50;5.95;;;1.70;;
53044;SDS011;38930;52.766;6.884;2023-05-24T10:50:48;6.70;;;2.25;;
53044;SDS011;38930;52.766;6.884;2023-05-24T10:53:15;6.97;;;2.33;;
53044;SDS011;38930;52.766;6.884;2023-05-24T11:01:26;6.07;;;1.80;;
53044;SDS011;38930;52.766;6.884;2023-05-24T11:06:44;8.95;;;1.90;;
53044;SDS011;38930;52.766;6.884;2023-05-24T11:09:17;7.63;;;1.92;;
53044;SDS011;38930;52.766;6.884;2023-05-24T11:11:45;7.35;;;1.73;;
53044;SDS011;38930;52.766;6.884;2023-05-24T11:14:12;4.95;;;1.67;;
53044;SDS011;38930;52.766;6.884;2023-05-24T11:16:38;4.93;;;1.77;;
53044;SDS011;38930;52.766;6.884;2023-05-24T11:19:17;5.85;;;1.75;;
53044;SDS011;38930;52.766;6.884;2023-05-24T11:21:46;4.70;;;1.90;;
53044;SDS011;38930;52.766;6.884;2023-05-24T11:24:15;6.50;;;1.98;;
53044;SDS011;38930;52.766;6.884;2023-05-24T11:26:44;6.05;;;2.22;;
53044;SDS011;38930;52.766;6.884;2023-05-24T11:29:13;8.50;;;2.17;;
53044;SDS011;38930;52.766;6.884;2023-05-24T11:31:49;6.53;;;2.30;;
53044;SDS011;38930;52.766;6.884;2023-05-24T11:34:17;6.38;;;1.58;;
53044;SDS011;38930;52.766;6.884;2023-05-24T11:36:44;6.22;;;2.15;;
53044;SDS011;38930;52.766;6.884;2023-05-24T11:41:37;8.73;;;2.28;;
53044;SDS011;38930;52.766;6.884;2023-05-24T11:44:07;4.90;;;1.98;;
53044;SDS011;38930;52.766;6.884;2023-05-24T11:46:34;7.78;;;2.75;;
53044;SDS011;38930;52.766;6.884;2023-05-24T11:49:00;5.57;;;2.00;;
53044;SDS011;38930;52.766;6.884;2023-05-24T11:53:56;5.10;;;1.95;;
53044;SDS011;38930;52.766;6.884;2023-05-24T11:56:23;7.00;;;2.03;;
53044;SDS011;38930;52.766;6.884;2023-05-24T11:58:52;4.75;;;1.60;;
53044;SDS011;38930;52.766;6.884;2023-05-24T12:01:26;5.82;;;1.95;;
53044;SDS011;38930;52.766;6.884;2023-05-24T12:03:52;4.93;;;1.80;;
53044;SDS011;38930;52.766;6.884;2023-05-24T12:06:19;7.88;;;2.45;;
53044;SDS011;38930;52.766;6.884;2023-05-24T12:08:46;6.93;;;1.77;;
53044;SDS011;38930;52.766;6.884;2023-05-24T12:11:12;4.60;;;1.95;;
53044;SDS011;38930;52.766;6.884;2023-05-24T12:13:40;7.05;;;2.08;;
53044;SDS011;38930;52.766;6.884;2023-05-24T12:16:05;6.27;;;2.00;;
53044;SDS011;38930;52.766;6.884;2023-05-24T12:18:31;5.03;;;1.70;;
53044;SDS011;38930;52.766;6.884;2023-05-24T12:20:57;5.27;;;1.70;;
53044;SDS011;38930;52.766;6.884;2023-05-24T12:23:23;9.97;;;2.40;;
53044;SDS011;38930;52.766;6.884;2023-05-24T12:25:58;5.68;;;2.20;;
53044;SDS011;38930;52.766;6.884;2023-05-24T12:28:24;4.18;;;1.80;;
53044;SDS011;38930;52.766;6.884;2023-05-24T12:30:51;5.80;;;2.00;;
53044;SDS011;38930;52.766;6.884;2023-05-24T12:33:17;7.37;;;2.40;;
53044;SDS011;38930;52.766;6.884;2023-05-24T12:35:43;7.88;;;1.80;;
53044;SDS011;38930;52.766;6.884;2023-05-24T12:38:10;4.85;;;1.50;;
53044;SDS011;38930;52.766;6.884;2023-05-24T12:40:36;5.97;;;1.80;;
53044;SDS011;38930;52.766;6.884;2023-05-24T12:43:03;5.27;;;1.77;;
53044;SDS011;38930;52.766;6.884;2023-05-24T12:45:29;7.50;;;1.88;;
53044;SDS011;38930;52.766;6.884;2023-05-24T12:47:57;4.63;;;2.10;;
53044;SDS011;38930;52.766;6.884;2023-05-24T12:50:25;5.88;;;1.70;;
53044;SDS011;38930;52.766;6.884;2023-05-24T12:52:51;8.63;;;1.75;;
53044;SDS011;38930;52.766;6.884;2023-05-24T12:55:21;5.47;;;1.90;;
53044;SDS011;38930;52.766;6.884;2023-05-24T12:57:49;9.02;;;2.30;;
53044;SDS011;38930;52.766;6.884;2023-05-24T13:00:18;7.75;;;1.83;;
53044;SDS011;38930;52.766;6.884;2023-05-24T13:02:45;5.07;;;1.55;;
53044;SDS011;38930;52.766;6.884;2023-05-24T13:05:11;6.67;;;1.93;;
53044;SDS011;38930;52.766;6.884;2023-05-24T13:07:36;6.20;;;1.30;;
53044;SDS011;38930;52.766;6.884;2023-05-24T13:10:03;6.10;;;1.55;;
53044;SDS011;38930;52.766;6.884;2023-05-24T13:12:30;5.18;;;2.22;;
53044;SDS011;38930;52.766;6.884;2023-05-24T13:14:57;5.63;;;1.45;;
53044;SDS011;38930;52.766;6.884;2023-05-24T13:17:22;6.63;;;1.87;;
53044;SDS011;38930;52.766;6.884;2023-05-24T13:19:48;6.37;;;1.53;;
53044;SDS011;38930;52.766;6.884;2023-05-24T13:22:14;5.87;;;2.03;;
53044;SDS011;38930;52.766;6.884;2023-05-24T13:24:40;5.17;;;1.90;;
53044;SDS011;38930;52.766;6.884;2023-05-24T13:27:06;7.87;;;1.83;;
53044;SDS011;38930;52.766;6.884;2023-05-24T13:29:31;5.00;;;1.87;;
53044;SDS011;38930;52.766;6.884;2023-05-24T13:31:57;7.23;;;1.80;;
53044;SDS011;38930;52.766;6.884;2023-05-24T13:34:23;5.20;;;2.03;;
53044;SDS011;38930;52.766;6.884;2023-05-24T13:36:50;6.68;;;2.03;;
53044;SDS011;38930;52.766;6.884;2023-05-24T13:39:16;6.75;;;2.22;;
53044;SDS011;38930;52.766;6.884;2023-05-24T13:41:43;6.47;;;1.85;;
53044;SDS011;38930;52.766;6.884;2023-05-24T13:44:09;5.00;;;1.80;;
53044;SDS011;38930;52.766;6.884;2023-05-24T13:46:35;5.10;;;1.83;;
53044;SDS011;38930;52.766;6.884;2023-05-24T13:49:00;5.77;;;1.73;;
53044;SDS011;38930;52.766;6.884;2023-05-24T13:51:26;7.30;;;2.43;;
53044;SDS011;38930;52.766;6.884;2023-05-24T13:53:52;7.93;;;2.00;;
53044;SDS011;38930;52.766;6.884;2023-05-24T13:58:46;7.10;;;1.65;;
53044;SDS011;38930;52.766;6.884;2023-05-24T14:01:11;8.27;;;1.83;;
53044;SDS011;38930;52.766;6.884;2023-05-24T14:03:37;8.43;;;1.90;;
53044;SDS011;38930;52.766;6.884;2023-05-24T14:06:05;6.78;;;2.20;;
53044;SDS011;38930;52.766;6.884;2023-05-24T14:10:57;5.45;;;2.22;;
53044;SDS011;38930;52.766;6.884;2023-05-24T14:13:23;8.30;;;1.97;;
53044;SDS011;38930;52.766;6.884;2023-05-24T14:15:48;6.30;;;1.60;;
53044;SDS011;38930;52.766;6.884;2023-05-24T14:18:14;7.63;;;2.10;;
53044;SDS011;38930;52.766;6.884;2023-05-24T14:20:40;5.37;;;1.90;;
53044;SDS011;38930;52.766;6.884;2023-05-24T14:23:06;9.53;;;1.80;;
53044;SDS011;38930;52.766;6.884;2023-05-24T14:25:32;9.30;;;1.83;;
53044;SDS011;38930;52.766;6.884;2023-05-24T14:27:58;7.13;;;1.87;;
53044;SDS011;38930;52.766;6.884;2023-05-24T14:30:24;4.77;;;2.00;;
53044;SDS011;38930;52.766;6.884;2023-05-24T14:32:50;7.50;;;1.95;;
53044;SDS011;38930;52.766;6.884;2023-05-24T14:35:15;8.90;;;1.90;;
53044;SDS011;38930;52.766;6.884;2023-05-24T14:37:41;5.90;;;2.43;;
53044;SDS011;38930;52.766;6.884;2023-05-24T14:40:07;4.97;;;1.97;;
53044;SDS011;38930;52.766;6.884;2023-05-24T14:42:33;4.70;;;1.50;;
53044;SDS011;38930;52.766;6.884;2023-05-24T14:44:59;6.57;;;2.07;;
53044;SDS011;38930;52.766;6.884;2023-05-24T14:47:25;4.83;;;1.77;;
53044;SDS011;38930;52.766;6.884;2023-05-24T14:49:50;6.33;;;1.80;;
53044;SDS011;38930;52.766;6.884;2023-05-24T14:52:16;5.27;;;2.00;;
53044;SDS011;38930;52.766;6.884;2023-05-24T14:54:41;7.67;;;2.50;;
53044;SDS011;38930;52.766;6.884;2023-05-24T14:57:07;6.43;;;1.57;;
53044;SDS011;38930;52.766;6.884;2023-05-24T14:59:33;12.10;;;1.80;;
53044;SDS011;38930;52.766;6.884;2023-05-24T15:01:58;8.30;;;2.10;;
53044;SDS011;38930;52.766;6.884;2023-05-24T15:04:24;6.00;;;1.80;;
53044;SDS011;38930;52.766;6.884;2023-05-24T15:06:51;7.43;;;2.00;;
53044;SDS011;38930;52.766;6.884;2023-05-24T15:09:16;5.80;;;2.30;;
53044;SDS011;38930;52.766;6.884;2023-05-24T15:11:42;7.60;;;1.83;;
53044;SDS011;38930;52.766;6.884;2023-05-24T15:14:08;4.20;;;1.37;;
53044;SDS011;38930;52.766;6.884;2023-05-24T15:16:33;10.13;;;2.63;;
53044;SDS011;38930;52.766;6.884;2023-05-24T15:18:59;6.53;;;1.80;;
53044;SDS011;38930;52.766;6.884;2023-05-24T15:21:24;6.13;;;1.53;;
53044;SDS011;38930;52.766;6.884;2023-05-24T15:23:50;6.17;;;1.57;;
53044;SDS011;38930;52.766;6.884;2023-05-24T15:26:15;3.67;;;1.53;;
53044;SDS011;38930;52.766;6.884;2023-05-24T15:28:41;5.50;;;1.47;;